sensor_id;sensor_type;location;lat;lon;timestamp;P1;durP1;ratioP1;P2;durP2;ratioP2
19414;SDS011;9843;48.882;12.592;2023-05-23T00:01:38;17.10;;;12.03;;
19414;SDS011;9843;48.882;12.592;2023-05-23T00:04:07;14.13;;;12.63;;
19414;SDS011;9843;48.882;12.592;2023-05-23T00:06:34;16.27;;;14.60;;
19414;SDS011;9843;48.882;12.592;2023-05-23T00:09:04;17.27;;;13.27;;
19414;SDS011;9843;48.882;12.592;2023-05-23T00:11:31;15.93;;;14.33;;
19414;SDS011;9843;48.882;12.592;2023-05-23T00:13:58;19.07;;;15.43;;
19414;SDS011;9843;48.882;12.592;2023-05-23T00:16:26;15.73;;;14.23;;
19414;SDS011;9843;48.882;12.592;2023-05-23T00:18:53;16.63;;;14.80;;
19414;SDS011;9843;48.882;12.592;2023-05-23T00:21:21;16.47;;;13.90;;
19414;SDS011;9843;48.882;12.592;2023-05-23T00:23:49;13.83;;;12.53;;
19414;SDS011;9843;48.882;12.592;2023-05-23T00:26:19;13.70;;;12.20;;
19414;SDS011;9843;48.882;12.592;2023-05-23T00:28:46;15.90;;;13.17;;
19414;SDS011;9843;48.882;12.592;2023-05-23T00:31:13;15.40;;;13.80;;
19414;SDS011;9843;48.882;12.592;2023-05-23T00:33:40;15.97;;;14.23;;
19414;SDS011;9843;48.882;12.592;2023-05-23T00:36:07;14.63;;;13.23;;
19414;SDS011;9843;48.882;12.592;2023-05-23T00:38:34;15.77;;;12.43;;
19414;SDS011;9843;48.882;12.592;2023-05-23T00:41:01;25.67;;;14.77;;
19414;SDS011;9843;48.882;12.592;2023-05-23T00:43:29;17.00;;;12.73;;
19414;SDS011;9843;48.882;12.592;2023-05-23T00:45:56;16.23;;;14.40;;
19414;SDS011;9843;48.882;12.592;2023-05-23T00:48:23;17.83;;;15.33;;
19414;SDS011;9843;48.882;12.592;2023-05-23T00:50:51;15.20;;;13.70;;
19414;SDS011;9843;48.882;12.592;2023-05-23T00:53:18;15.93;;;14.40;;
19414;SDS011;9843;48.882;12.592;2023-05-23T00:55:46;16.80;;;14.10;;
19414;SDS011;9843;48.882;12.592;2023-05-23T00:58:13;23.60;;;16.97;;
19414;SDS011;9843;48.882;12.592;2023-05-23T01:00:43;19.60;;;16.43;;
19414;SDS011;9843;48.882;12.592;2023-05-23T01:03:10;18.90;;;15.27;;
19414;SDS011;9843;48.882;12.592;2023-05-23T01:05:41;17.27;;;14.80;;
19414;SDS011;9843;48.882;12.592;2023-05-23T01:08:09;16.13;;;14.47;;
19414;SDS011;9843;48.882;12.592;2023-05-23T01:10:36;16.67;;;15.03;;
19414;SDS011;9843;48.882;12.592;2023-05-23T01:13:06;19.90;;;15.50;;
19414;SDS011;9843;48.882;12.592;2023-05-23T01:15:37;15.90;;;14.40;;
19414;SDS011;9843;48.882;12.592;2023-05-23T01:18:09;17.70;;;14.93;;
19414;SDS011;9843;48.882;12.592;2023-05-23T01:20:37;18.43;;;16.57;;
19414;SDS011;9843;48.882;12.592;2023-05-23T01:23:11;18.13;;;16.03;;
19414;SDS011;9843;48.882;12.592;2023-05-23T01:25:47;16.27;;;14.57;;
19414;SDS011;9843;48.882;12.592;2023-05-23T01:28:19;20.47;;;16.03;;
19414;SDS011;9843;48.882;12.592;2023-05-23T01:30:47;28.53;;;17.47;;
19414;SDS011;9843;48.882;12.592;2023-05-23T01:33:17;16.60;;;14.80;;
19414;SDS011;9843;48.882;12.592;2023-05-23T01:35:46;16.40;;;14.80;;
19414;SDS011;9843;48.882;12.592;2023-05-23T01:38:13;20.73;;;17.77;;
19414;SDS011;9843;48.882;12.592;2023-05-23T01:40:40;16.00;;;14.40;;
19414;SDS011;9843;48.882;12.592;2023-05-23T01:43:07;18.37;;;16.67;;
19414;SDS011;9843;48.882;12.592;2023-05-23T01:45:35;15.63;;;14.07;;
19414;SDS011;9843;48.882;12.592;2023-05-23T01:48:03;18.97;;;15.63;;
19414;SDS011;9843;48.882;12.592;2023-05-23T01:50:31;17.63;;;15.87;;
19414;SDS011;9843;48.882;12.592;2023-05-23T01:52:58;19.53;;;16.80;;
19414;SDS011;9843;48.882;12.592;2023-05-23T01:55:25;19.93;;;17.87;;
19414;SDS011;9843;48.882;12.592;2023-05-23T01:57:53;18.87;;;16.90;;
19414;SDS011;9843;48.882;12.592;2023-05-23T02:00:21;18.53;;;16.63;;
19414;SDS011;9843;48.882;12.592;2023-05-23T02:02:50;17.77;;;14.90;;
19414;SDS011;9843;48.882;12.592;2023-05-23T02:05:17;22.87;;;17.03;;
19414;SDS011;9843;48.882;12.592;2023-05-23T02:07:44;16.63;;;15.03;;
19414;SDS011;9843;48.882;12.592;2023-05-23T02:10:11;23.27;;;16.47;;
19414;SDS011;9843;48.882;12.592;2023-05-23T02:12:38;20.33;;;16.53;;
19414;SDS011;9843;48.882;12.592;2023-05-23T02:15:05;19.43;;;14.23;;
19414;SDS011;9843;48.882;12.592;2023-05-23T02:17:33;23.17;;;16.90;;
19414;SDS011;9843;48.882;12.592;2023-05-23T02:20:01;17.53;;;15.70;;
19414;SDS011;9843;48.882;12.592;2023-05-23T02:22:28;27.07;;;18.20;;
19414;SDS011;9843;48.882;12.592;2023-05-23T02:24:55;21.43;;;18.67;;
19414;SDS011;9843;48.882;12.592;2023-05-23T02:27:22;26.80;;;18.43;;
19414;SDS011;9843;48.882;12.592;2023-05-23T02:29:49;25.40;;;17.77;;
19414;SDS011;9843;48.882;12.592;2023-05-23T02:32:16;32.83;;;19.13;;
19414;SDS011;9843;48.882;12.592;2023-05-23T02:34:43;19.63;;;17.53;;
19414;SDS011;9843;48.882;12.592;2023-05-23T02:37:16;16.03;;;14.37;;
19414;SDS011;9843;48.882;12.592;2023-05-23T02:39:43;21.63;;;19.50;;
19414;SDS011;9843;48.882;12.592;2023-05-23T02:42:10;18.60;;;16.73;;
19414;SDS011;9843;48.882;12.592;2023-05-23T02:44:37;19.87;;;16.30;;
19414;SDS011;9843;48.882;12.592;2023-05-23T02:47:04;18.57;;;16.67;;
19414;SDS011;9843;48.882;12.592;2023-05-23T02:49:31;23.13;;;17.20;;
19414;SDS011;9843;48.882;12.592;2023-05-23T02:51:58;18.50;;;16.60;;
19414;SDS011;9843;48.882;12.592;2023-05-23T02:54:26;25.20;;;15.43;;
19414;SDS011;9843;48.882;12.592;2023-05-23T02:56:53;18.40;;;16.13;;
19414;SDS011;9843;48.882;12.592;2023-05-23T02:59:22;16.33;;;14.67;;
19414;SDS011;9843;48.882;12.592;2023-05-23T03:01:50;17.93;;;16.03;;
19414;SDS011;9843;48.882;12.592;2023-05-23T03:04:17;21.83;;;16.03;;
19414;SDS011;9843;48.882;12.592;2023-05-23T03:06:45;18.87;;;15.93;;
19414;SDS011;9843;48.882;12.592;2023-05-23T03:09:13;18.90;;;16.37;;
19414;SDS011;9843;48.882;12.592;2023-05-23T03:11:42;22.93;;;18.20;;
19414;SDS011;9843;48.882;12.592;2023-05-23T03:14:09;14.33;;;13.00;;
19414;SDS011;9843;48.882;12.592;2023-05-23T03:16:36;16.87;;;15.20;;
19414;SDS011;9843;48.882;12.592;2023-05-23T03:19:03;15.70;;;13.97;;
19414;SDS011;9843;48.882;12.592;2023-05-23T03:21:31;17.17;;;14.03;;
19414;SDS011;9843;48.882;12.592;2023-05-23T03:23:59;16.03;;;14.17;;
19414;SDS011;9843;48.882;12.592;2023-05-23T03:26:26;26.17;;;15.53;;
19414;SDS011;9843;48.882;12.592;2023-05-23T03:28:54;14.73;;;13.27;;
19414;SDS011;9843;48.882;12.592;2023-05-23T03:31:21;18.47;;;14.83;;
19414;SDS011;9843;48.882;12.592;2023-05-23T03:33:49;18.17;;;14.03;;
19414;SDS011;9843;48.882;12.592;2023-05-23T03:36:16;16.27;;;14.67;;
19414;SDS011;9843;48.882;12.592;2023-05-23T03:38:43;15.30;;;13.70;;
19414;SDS011;9843;48.882;12.592;2023-05-23T03:41:10;15.00;;;13.20;;
19414;SDS011;9843;48.882;12.592;2023-05-23T03:43:37;16.30;;;14.60;;
19414;SDS011;9843;48.882;12.592;2023-05-23T03:46:05;20.00;;;16.00;;
19414;SDS011;9843;48.882;12.592;2023-05-23T03:48:32;25.47;;;16.87;;
19414;SDS011;9843;48.882;12.592;2023-05-23T03:51:00;20.03;;;16.53;;
19414;SDS011;9843;48.882;12.592;2023-05-23T03:53:27;19.37;;;16.13;;
19414;SDS011;9843;48.882;12.592;2023-05-23T03:55:54;25.27;;;17.93;;
19414;SDS011;9843;48.882;12.592;2023-05-23T03:58:21;17.67;;;15.40;;
19414;SDS011;9843;48.882;12.592;2023-05-23T04:00:48;18.53;;;15.67;;
19414;SDS011;9843;48.882;12.592;2023-05-23T04:03:18;19.60;;;14.93;;
19414;SDS011;9843;48.882;12.592;2023-05-23T04:05:45;19.13;;;14.53;;
19414;SDS011;9843;48.882;12.592;2023-05-23T04:08:12;16.70;;;14.83;;
19414;SDS011;9843;48.882;12.592;2023-05-23T04:10:39;21.03;;;15.70;;
19414;SDS011;9843;48.882;12.592;2023-05-23T04:13:06;20.47;;;16.40;;
19414;SDS011;9843;48.882;12.592;2023-05-23T04:15:33;18.70;;;16.27;;
19414;SDS011;9843;48.882;12.592;2023-05-23T04:18:00;17.93;;;15.13;;
19414;SDS011;9843;48.882;12.592;2023-05-23T04:20:29;17.63;;;15.83;;
19414;SDS011;9843;48.882;12.592;2023-05-23T04:22:56;19.57;;;16.97;;
19414;SDS011;9843;48.882;12.592;2023-05-23T04:25:23;19.07;;;15.00;;
19414;SDS011;9843;48.882;12.592;2023-05-23T04:27:50;17.97;;;16.03;;
19414;SDS011;9843;48.882;12.592;2023-05-23T04:30:18;16.87;;;15.13;;
19414;SDS011;9843;48.882;12.592;2023-05-23T04:32:46;17.97;;;14.97;;
19414;SDS011;9843;48.882;12.592;2023-05-23T04:35:13;15.60;;;14.10;;
19414;SDS011;9843;48.882;12.592;2023-05-23T04:37:41;20.60;;;16.83;;
19414;SDS011;9843;48.882;12.592;2023-05-23T04:40:09;18.87;;;15.63;;
19414;SDS011;9843;48.882;12.592;2023-05-23T04:42:37;22.53;;;15.33;;
19414;SDS011;9843;48.882;12.592;2023-05-23T04:45:06;17.87;;;15.97;;
19414;SDS011;9843;48.882;12.592;2023-05-23T04:47:33;17.43;;;15.60;;
19414;SDS011;9843;48.882;12.592;2023-05-23T04:50:01;16.97;;;15.03;;
19414;SDS011;9843;48.882;12.592;2023-05-23T04:52:28;18.77;;;16.73;;
19414;SDS011;9843;48.882;12.592;2023-05-23T04:54:58;18.00;;;15.00;;
19414;SDS011;9843;48.882;12.592;2023-05-23T04:57:25;21.17;;;16.73;;
19414;SDS011;9843;48.882;12.592;2023-05-23T04:59:52;24.43;;;15.83;;
19414;SDS011;9843;48.882;12.592;2023-05-23T05:02:20;28.90;;;18.10;;
19414;SDS011;9843;48.882;12.592;2023-05-23T05:04:47;19.57;;;16.80;;
19414;SDS011;9843;48.882;12.592;2023-05-23T05:07:15;19.97;;;15.90;;
19414;SDS011;9843;48.882;12.592;2023-05-23T05:09:42;24.10;;;16.27;;
19414;SDS011;9843;48.882;12.592;2023-05-23T05:12:10;17.30;;;15.50;;
19414;SDS011;9843;48.882;12.592;2023-05-23T05:14:37;22.37;;;16.80;;
19414;SDS011;9843;48.882;12.592;2023-05-23T05:17:05;15.70;;;14.10;;
19414;SDS011;9843;48.882;12.592;2023-05-23T05:19:32;23.20;;;15.03;;
19414;SDS011;9843;48.882;12.592;2023-05-23T05:21:59;16.47;;;14.80;;
19414;SDS011;9843;48.882;12.592;2023-05-23T05:24:26;15.77;;;14.07;;
19414;SDS011;9843;48.882;12.592;2023-05-23T05:26:53;18.07;;;15.60;;
19414;SDS011;9843;48.882;12.592;2023-05-23T05:29:22;18.07;;;15.20;;
19414;SDS011;9843;48.882;12.592;2023-05-23T05:31:49;18.07;;;16.27;;
19414;SDS011;9843;48.882;12.592;2023-05-23T05:34:16;20.13;;;15.03;;
19414;SDS011;9843;48.882;12.592;2023-05-23T05:36:43;16.13;;;14.43;;
19414;SDS011;9843;48.882;12.592;2023-05-23T05:39:12;14.93;;;13.40;;
19414;SDS011;9843;48.882;12.592;2023-05-23T05:41:39;19.00;;;15.13;;
19414;SDS011;9843;48.882;12.592;2023-05-23T05:44:06;19.40;;;13.80;;
19414;SDS011;9843;48.882;12.592;2023-05-23T05:46:34;15.77;;;12.57;;
19414;SDS011;9843;48.882;12.592;2023-05-23T05:49:01;18.40;;;14.33;;
19414;SDS011;9843;48.882;12.592;2023-05-23T05:51:28;17.10;;;13.30;;
19414;SDS011;9843;48.882;12.592;2023-05-23T05:53:56;13.73;;;12.33;;
19414;SDS011;9843;48.882;12.592;2023-05-23T05:56:23;16.00;;;13.47;;
19414;SDS011;9843;48.882;12.592;2023-05-23T05:58:52;21.13;;;13.27;;
19414;SDS011;9843;48.882;12.592;2023-05-23T06:01:19;19.53;;;14.23;;
19414;SDS011;9843;48.882;12.592;2023-05-23T06:03:47;14.30;;;12.77;;
19414;SDS011;9843;48.882;12.592;2023-05-23T06:06:14;17.43;;;12.80;;
19414;SDS011;9843;48.882;12.592;2023-05-23T06:08:41;14.00;;;11.43;;
19414;SDS011;9843;48.882;12.592;2023-05-23T06:11:09;13.57;;;12.20;;
19414;SDS011;9843;48.882;12.592;2023-05-23T06:13:36;14.60;;;12.00;;
19414;SDS011;9843;48.882;12.592;2023-05-23T06:16:03;14.33;;;11.93;;
19414;SDS011;9843;48.882;12.592;2023-05-23T06:18:31;17.70;;;13.80;;
19414;SDS011;9843;48.882;12.592;2023-05-23T06:20:59;17.23;;;12.57;;
19414;SDS011;9843;48.882;12.592;2023-05-23T06:23:26;14.87;;;11.43;;
19414;SDS011;9843;48.882;12.592;2023-05-23T06:25:53;19.43;;;13.00;;
19414;SDS011;9843;48.882;12.592;2023-05-23T06:28:20;15.97;;;12.33;;
19414;SDS011;9843;48.882;12.592;2023-05-23T06:30:48;13.17;;;11.77;;
19414;SDS011;9843;48.882;12.592;2023-05-23T06:33:15;18.17;;;11.20;;
19414;SDS011;9843;48.882;12.592;2023-05-23T06:35:42;26.00;;;12.80;;
19414;SDS011;9843;48.882;12.592;2023-05-23T06:38:10;14.87;;;12.50;;
19414;SDS011;9843;48.882;12.592;2023-05-23T06:40:37;11.47;;;10.27;;
19414;SDS011;9843;48.882;12.592;2023-05-23T06:43:05;12.63;;;11.33;;
19414;SDS011;9843;48.882;12.592;2023-05-23T06:45:32;13.00;;;11.33;;
19414;SDS011;9843;48.882;12.592;2023-05-23T06:48:00;11.80;;;10.63;;
19414;SDS011;9843;48.882;12.592;2023-05-23T06:50:27;13.80;;;10.87;;
19414;SDS011;9843;48.882;12.592;2023-05-23T06:52:54;16.37;;;10.87;;
19414;SDS011;9843;48.882;12.592;2023-05-23T06:55:22;21.17;;;11.27;;
19414;SDS011;9843;48.882;12.592;2023-05-23T06:57:49;13.57;;;11.27;;
19414;SDS011;9843;48.882;12.592;2023-05-23T07:00:17;11.50;;;10.30;;
19414;SDS011;9843;48.882;12.592;2023-05-23T07:02:44;11.03;;;9.80;;
19414;SDS011;9843;48.882;12.592;2023-05-23T07:05:12;13.98;;;10.35;;
19414;SDS011;9843;48.882;12.592;2023-05-23T07:07:40;12.17;;;9.73;;
19414;SDS011;9843;48.882;12.592;2023-05-23T07:10:07;10.65;;;9.57;;
19414;SDS011;9843;48.882;12.592;2023-05-23T07:12:36;11.30;;;9.80;;
19414;SDS011;9843;48.882;12.592;2023-05-23T07:15:03;14.40;;;9.93;;
19414;SDS011;9843;48.882;12.592;2023-05-23T07:17:30;12.40;;;11.07;;
19414;SDS011;9843;48.882;12.592;2023-05-23T07:19:57;11.15;;;9.98;;
19414;SDS011;9843;48.882;12.592;2023-05-23T07:22:24;11.50;;;10.27;;
19414;SDS011;9843;48.882;12.592;2023-05-23T07:24:51;11.75;;;10.65;;
19414;SDS011;9843;48.882;12.592;2023-05-23T07:27:18;10.95;;;9.75;;
19414;SDS011;9843;48.882;12.592;2023-05-23T07:29:46;11.63;;;10.43;;
19414;SDS011;9843;48.882;12.592;2023-05-23T07:32:14;17.33;;;11.15;;
19414;SDS011;9843;48.882;12.592;2023-05-23T07:34:41;14.40;;;9.73;;
19414;SDS011;9843;48.882;12.592;2023-05-23T07:37:08;12.35;;;10.52;;
19414;SDS011;9843;48.882;12.592;2023-05-23T07:39:36;13.50;;;10.63;;
19414;SDS011;9843;48.882;12.592;2023-05-23T07:42:03;11.35;;;9.90;;
19414;SDS011;9843;48.882;12.592;2023-05-23T07:44:30;16.80;;;9.98;;
19414;SDS011;9843;48.882;12.592;2023-05-23T07:46:58;12.90;;;10.32;;
19414;SDS011;9843;48.882;12.592;2023-05-23T07:49:25;13.40;;;11.32;;
19414;SDS011;9843;48.882;12.592;2023-05-23T07:51:52;14.30;;;10.55;;
19414;SDS011;9843;48.882;12.592;2023-05-23T07:54:19;10.80;;;9.70;;
19414;SDS011;9843;48.882;12.592;2023-05-23T07:56:47;15.32;;;10.18;;
19414;SDS011;9843;48.882;12.592;2023-05-23T07:59:14;10.43;;;8.23;;
19414;SDS011;9843;48.882;12.592;2023-05-23T08:01:41;12.60;;;9.48;;
19414;SDS011;9843;48.882;12.592;2023-05-23T08:04:10;12.77;;;9.82;;
19414;SDS011;9843;48.882;12.592;2023-05-23T08:06:37;8.60;;;7.53;;
19414;SDS011;9843;48.882;12.592;2023-05-23T08:09:04;9.70;;;8.02;;
19414;SDS011;9843;48.882;12.592;2023-05-23T08:11:31;11.38;;;9.00;;
19414;SDS011;9843;48.882;12.592;2023-05-23T08:14:00;14.35;;;9.75;;
19414;SDS011;9843;48.882;12.592;2023-05-23T08:16:27;9.40;;;7.72;;
19414;SDS011;9843;48.882;12.592;2023-05-23T08:18:54;8.40;;;7.43;;
19414;SDS011;9843;48.882;12.592;2023-05-23T08:21:22;10.07;;;9.15;;
19414;SDS011;9843;48.882;12.592;2023-05-23T08:23:49;11.98;;;9.60;;
19414;SDS011;9843;48.882;12.592;2023-05-23T08:26:16;10.50;;;8.25;;
19414;SDS011;9843;48.882;12.592;2023-05-23T08:28:43;9.88;;;8.85;;
19414;SDS011;9843;48.882;12.592;2023-05-23T08:31:10;8.10;;;7.35;;
19414;SDS011;9843;48.882;12.592;2023-05-23T08:33:38;9.70;;;8.70;;
19414;SDS011;9843;48.882;12.592;2023-05-23T08:36:05;10.18;;;7.00;;
19414;SDS011;9843;48.882;12.592;2023-05-23T08:38:33;8.88;;;7.22;;
19414;SDS011;9843;48.882;12.592;2023-05-23T08:41:00;8.88;;;7.68;;
19414;SDS011;9843;48.882;12.592;2023-05-23T08:43:27;7.60;;;6.55;;
19414;SDS011;9843;48.882;12.592;2023-05-23T08:45:54;12.55;;;8.43;;
19414;SDS011;9843;48.882;12.592;2023-05-23T08:48:22;9.75;;;7.97;;
19414;SDS011;9843;48.882;12.592;2023-05-23T08:50:52;11.52;;;7.55;;
19414;SDS011;9843;48.882;12.592;2023-05-23T08:53:19;9.45;;;8.13;;
19414;SDS011;9843;48.882;12.592;2023-05-23T08:55:48;8.23;;;7.43;;
19414;SDS011;9843;48.882;12.592;2023-05-23T08:58:16;10.93;;;8.30;;
19414;SDS011;9843;48.882;12.592;2023-05-23T09:00:46;10.52;;;8.38;;
19414;SDS011;9843;48.882;12.592;2023-05-23T09:03:14;10.57;;;7.25;;
19414;SDS011;9843;48.882;12.592;2023-05-23T09:05:41;19.20;;;7.75;;
19414;SDS011;9843;48.882;12.592;2023-05-23T09:08:08;8.63;;;6.55;;
19414;SDS011;9843;48.882;12.592;2023-05-23T09:10:35;8.75;;;6.75;;
19414;SDS011;9843;48.882;12.592;2023-05-23T09:13:05;10.18;;;7.03;;
19414;SDS011;9843;48.882;12.592;2023-05-23T09:15:33;8.68;;;6.70;;
19414;SDS011;9843;48.882;12.592;2023-05-23T09:18:01;11.15;;;6.47;;
19414;SDS011;9843;48.882;12.592;2023-05-23T09:20:28;10.85;;;7.53;;
19414;SDS011;9843;48.882;12.592;2023-05-23T09:22:55;6.53;;;5.75;;
19414;SDS011;9843;48.882;12.592;2023-05-23T09:25:22;10.73;;;6.00;;
19414;SDS011;9843;48.882;12.592;2023-05-23T09:27:50;9.38;;;5.60;;
19414;SDS011;9843;48.882;12.592;2023-05-23T09:30:19;7.97;;;5.65;;
19414;SDS011;9843;48.882;12.592;2023-05-23T09:32:56;12.57;;;7.05;;
19414;SDS011;9843;48.882;12.592;2023-05-23T09:35:24;7.13;;;6.43;;
19414;SDS011;9843;48.882;12.592;2023-05-23T09:37:55;16.20;;;7.63;;
19414;SDS011;9843;48.882;12.592;2023-05-23T09:40:23;9.07;;;5.80;;
19414;SDS011;9843;48.882;12.592;2023-05-23T09:42:54;7.20;;;6.53;;
19414;SDS011;9843;48.882;12.592;2023-05-23T09:45:28;7.97;;;5.88;;
19414;SDS011;9843;48.882;12.592;2023-05-23T09:47:55;8.90;;;5.00;;
19414;SDS011;9843;48.882;12.592;2023-05-23T09:50:22;6.88;;;5.80;;
19414;SDS011;9843;48.882;12.592;2023-05-23T09:52:49;10.00;;;5.80;;
19414;SDS011;9843;48.882;12.592;2023-05-23T09:55:18;5.68;;;5.15;;
19414;SDS011;9843;48.882;12.592;2023-05-23T09:57:45;7.72;;;5.15;;
19414;SDS011;9843;48.882;12.592;2023-05-23T10:00:14;8.32;;;5.55;;
19414;SDS011;9843;48.882;12.592;2023-05-23T10:05:29;7.63;;;5.43;;
19414;SDS011;9843;48.882;12.592;2023-05-23T10:07:57;4.82;;;4.32;;
19414;SDS011;9843;48.882;12.592;2023-05-23T10:10:26;8.82;;;4.88;;
19414;SDS011;9843;48.882;12.592;2023-05-23T10:12:54;8.85;;;4.25;;
19414;SDS011;9843;48.882;12.592;2023-05-23T10:15:22;7.72;;;4.75;;
19414;SDS011;9843;48.882;12.592;2023-05-23T10:17:52;7.88;;;5.35;;
19414;SDS011;9843;48.882;12.592;2023-05-23T10:20:24;11.82;;;5.93;;
19414;SDS011;9843;48.882;12.592;2023-05-23T10:22:52;7.28;;;6.57;;
19414;SDS011;9843;48.882;12.592;2023-05-23T10:25:20;9.13;;;7.05;;
19414;SDS011;9843;48.882;12.592;2023-05-23T10:27:47;7.82;;;6.78;;
19414;SDS011;9843;48.882;12.592;2023-05-23T10:30:15;8.13;;;4.78;;
19414;SDS011;9843;48.882;12.592;2023-05-23T10:32:42;6.85;;;5.70;;
19414;SDS011;9843;48.882;12.592;2023-05-23T10:35:11;5.50;;;4.78;;
19414;SDS011;9843;48.882;12.592;2023-05-23T10:37:41;7.38;;;4.53;;
19414;SDS011;9843;48.882;12.592;2023-05-23T10:40:15;9.20;;;4.47;;
19414;SDS011;9843;48.882;12.592;2023-05-23T10:42:48;6.45;;;4.75;;
19414;SDS011;9843;48.882;12.592;2023-05-23T10:45:18;5.88;;;4.90;;
19414;SDS011;9843;48.882;12.592;2023-05-23T10:47:45;8.05;;;5.43;;
19414;SDS011;9843;48.882;12.592;2023-05-23T10:50:13;8.82;;;4.90;;
19414;SDS011;9843;48.882;12.592;2023-05-23T10:52:41;7.18;;;5.05;;
19414;SDS011;9843;48.882;12.592;2023-05-23T10:55:13;8.80;;;5.40;;
19414;SDS011;9843;48.882;12.592;2023-05-23T10:57:41;7.22;;;5.40;;
19414;SDS011;9843;48.882;12.592;2023-05-23T11:00:11;8.32;;;5.65;;
19414;SDS011;9843;48.882;12.592;2023-05-23T11:02:38;18.38;;;6.03;;
19414;SDS011;9843;48.882;12.592;2023-05-23T11:05:19;10.27;;;5.22;;
19414;SDS011;9843;48.882;12.592;2023-05-23T11:07:47;13.13;;;7.63;;
19414;SDS011;9843;48.882;12.592;2023-05-23T11:10:33;11.27;;;6.03;;
19414;SDS011;9843;48.882;12.592;2023-05-23T11:13:17;6.80;;;5.97;;
19414;SDS011;9843;48.882;12.592;2023-05-23T11:15:45;13.90;;;5.90;;
19414;SDS011;9843;48.882;12.592;2023-05-23T11:18:18;15.50;;;5.25;;
19414;SDS011;9843;48.882;12.592;2023-05-23T11:20:45;15.52;;;5.90;;
19414;SDS011;9843;48.882;12.592;2023-05-23T11:23:12;8.50;;;5.55;;
19414;SDS011;9843;48.882;12.592;2023-05-23T11:25:41;7.05;;;5.47;;
19414;SDS011;9843;48.882;12.592;2023-05-23T11:28:09;5.80;;;4.45;;
19414;SDS011;9843;48.882;12.592;2023-05-23T11:30:36;6.85;;;6.25;;
19414;SDS011;9843;48.882;12.592;2023-05-23T11:33:07;11.25;;;5.55;;
19414;SDS011;9843;48.882;12.592;2023-05-23T11:35:37;6.70;;;5.70;;
19414;SDS011;9843;48.882;12.592;2023-05-23T11:38:04;8.98;;;4.55;;
19414;SDS011;9843;48.882;12.592;2023-05-23T11:40:31;5.95;;;4.75;;
19414;SDS011;9843;48.882;12.592;2023-05-23T11:43:00;11.70;;;4.43;;
19414;SDS011;9843;48.882;12.592;2023-05-23T11:45:28;5.15;;;4.65;;
19414;SDS011;9843;48.882;12.592;2023-05-23T11:47:55;7.10;;;5.05;;
19414;SDS011;9843;48.882;12.592;2023-05-23T11:50:22;15.77;;;5.60;;
19414;SDS011;9843;48.882;12.592;2023-05-23T11:52:49;8.27;;;5.40;;
19414;SDS011;9843;48.882;12.592;2023-05-23T11:55:17;11.77;;;5.70;;
19414;SDS011;9843;48.882;12.592;2023-05-23T11:57:45;8.18;;;4.93;;
19414;SDS011;9843;48.882;12.592;2023-05-23T12:00:14;11.05;;;6.05;;
19414;SDS011;9843;48.882;12.592;2023-05-23T12:02:41;8.60;;;6.43;;
19414;SDS011;9843;48.882;12.592;2023-05-23T12:05:09;12.00;;;5.95;;
19414;SDS011;9843;48.882;12.592;2023-05-23T12:07:39;8.15;;;5.03;;
19414;SDS011;9843;48.882;12.592;2023-05-23T12:10:06;9.63;;;5.88;;
19414;SDS011;9843;48.882;12.592;2023-05-23T12:12:34;8.10;;;4.60;;
19414;SDS011;9843;48.882;12.592;2023-05-23T12:15:01;7.85;;;5.47;;
19414;SDS011;9843;48.882;12.592;2023-05-23T12:17:30;6.63;;;5.32;;
19414;SDS011;9843;48.882;12.592;2023-05-23T12:19:57;7.53;;;5.47;;
19414;SDS011;9843;48.882;12.592;2023-05-23T12:22:24;8.18;;;5.85;;
19414;SDS011;9843;48.882;12.592;2023-05-23T12:24:52;7.05;;;4.57;;
19414;SDS011;9843;48.882;12.592;2023-05-23T12:27:25;9.00;;;6.35;;
19414;SDS011;9843;48.882;12.592;2023-05-23T12:29:54;6.32;;;4.80;;
19414;SDS011;9843;48.882;12.592;2023-05-23T12:32:31;7.28;;;5.47;;
19414;SDS011;9843;48.882;12.592;2023-05-23T12:34:58;7.68;;;6.20;;
19414;SDS011;9843;48.882;12.592;2023-05-23T12:37:25;12.73;;;6.53;;
19414;SDS011;9843;48.882;12.592;2023-05-23T12:39:53;8.93;;;5.32;;
19414;SDS011;9843;48.882;12.592;2023-05-23T12:42:21;6.93;;;5.47;;
19414;SDS011;9843;48.882;12.592;2023-05-23T12:44:50;8.02;;;5.15;;
19414;SDS011;9843;48.882;12.592;2023-05-23T12:47:17;8.32;;;6.63;;
19414;SDS011;9843;48.882;12.592;2023-05-23T12:49:45;6.65;;;5.75;;
19414;SDS011;9843;48.882;12.592;2023-05-23T12:52:13;6.90;;;5.45;;
19414;SDS011;9843;48.882;12.592;2023-05-23T12:54:40;7.20;;;5.35;;
19414;SDS011;9843;48.882;12.592;2023-05-23T12:57:08;5.78;;;4.60;;
19414;SDS011;9843;48.882;12.592;2023-05-23T12:59:35;10.52;;;5.80;;
19414;SDS011;9843;48.882;12.592;2023-05-23T13:02:02;7.10;;;5.38;;
19414;SDS011;9843;48.882;12.592;2023-05-23T13:04:29;10.63;;;5.78;;
19414;SDS011;9843;48.882;12.592;2023-05-23T13:06:57;8.82;;;5.40;;
19414;SDS011;9843;48.882;12.592;2023-05-23T13:09:24;10.20;;;6.88;;
19414;SDS011;9843;48.882;12.592;2023-05-23T13:11:51;6.50;;;5.47;;
19414;SDS011;9843;48.882;12.592;2023-05-23T13:14:18;8.18;;;5.85;;
19414;SDS011;9843;48.882;12.592;2023-05-23T13:16:45;6.72;;;5.65;;
19414;SDS011;9843;48.882;12.592;2023-05-23T13:19:12;7.85;;;5.38;;
19414;SDS011;9843;48.882;12.592;2023-05-23T13:21:40;5.93;;;4.32;;
19414;SDS011;9843;48.882;12.592;2023-05-23T13:24:08;9.52;;;5.30;;
19414;SDS011;9843;48.882;12.592;2023-05-23T13:26:35;9.75;;;5.70;;
19414;SDS011;9843;48.882;12.592;2023-05-23T13:29:02;9.27;;;5.97;;
19414;SDS011;9843;48.882;12.592;2023-05-23T13:31:29;6.68;;;5.55;;
19414;SDS011;9843;48.882;12.592;2023-05-23T13:33:56;8.70;;;6.25;;
19414;SDS011;9843;48.882;12.592;2023-05-23T13:36:23;10.05;;;5.80;;
19414;SDS011;9843;48.882;12.592;2023-05-23T13:38:50;6.32;;;4.60;;
19414;SDS011;9843;48.882;12.592;2023-05-23T13:41:18;6.43;;;5.68;;
19414;SDS011;9843;48.882;12.592;2023-05-23T13:43:45;12.05;;;5.68;;
19414;SDS011;9843;48.882;12.592;2023-05-23T13:46:13;6.72;;;5.38;;
19414;SDS011;9843;48.882;12.592;2023-05-23T13:48:40;6.35;;;5.72;;
19414;SDS011;9843;48.882;12.592;2023-05-23T13:51:07;8.88;;;5.90;;
19414;SDS011;9843;48.882;12.592;2023-05-23T13:53:34;9.10;;;7.38;;
19414;SDS011;9843;48.882;12.592;2023-05-23T13:56:01;12.27;;;5.45;;
19414;SDS011;9843;48.882;12.592;2023-05-23T13:58:30;6.68;;;5.88;;
19414;SDS011;9843;48.882;12.592;2023-05-23T14:00:57;17.20;;;5.22;;
19414;SDS011;9843;48.882;12.592;2023-05-23T14:03:24;6.15;;;5.55;;
19414;SDS011;9843;48.882;12.592;2023-05-23T14:05:51;10.55;;;6.43;;
19414;SDS011;9843;48.882;12.592;2023-05-23T14:08:18;8.50;;;5.95;;
19414;SDS011;9843;48.882;12.592;2023-05-23T14:10:45;8.38;;;5.85;;
19414;SDS011;9843;48.882;12.592;2023-05-23T14:13:12;8.88;;;5.47;;
19414;SDS011;9843;48.882;12.592;2023-05-23T14:15:40;6.63;;;5.22;;
19414;SDS011;9843;48.882;12.592;2023-05-23T14:18:07;6.95;;;5.88;;
19414;SDS011;9843;48.882;12.592;2023-05-23T14:20:34;7.35;;;5.50;;
19414;SDS011;9843;48.882;12.592;2023-05-23T14:23:01;6.78;;;5.22;;
19414;SDS011;9843;48.882;12.592;2023-05-23T14:25:28;12.63;;;6.65;;
19414;SDS011;9843;48.882;12.592;2023-05-23T14:27:56;7.00;;;6.22;;
19414;SDS011;9843;48.882;12.592;2023-05-23T14:30:23;13.02;;;6.25;;
19414;SDS011;9843;48.882;12.592;2023-05-23T14:32:51;9.68;;;5.40;;
19414;SDS011;9843;48.882;12.592;2023-05-23T14:35:18;6.63;;;5.97;;
19414;SDS011;9843;48.882;12.592;2023-05-23T14:37:46;5.72;;;5.05;;